EDDR 271950Z VRB02KT 9999 FEW035 SCT110 18/14 Q1015 NOSIG EDDR 271920Z 06002KT 9999 FEW035 SCT110 19/13 Q1014 NOSIG EDDR 271850Z 07001KT 9999 FEW035 SCT110 20/13 Q1014 NOSIG EDDR 271820Z VRB01KT 9999 FEW035 BKN100 21/13 Q1014 NOSIG EDDR 271750Z 26002KT 9999 FEW035 BKN100 21/13 Q1014 NOSIG EDDR 271720Z 24003KT 9999 FEW035 BKN100 21/13 Q1014 NOSIG EDDR 271650Z 23003KT 180V270 9999 FEW040 BKN110 21/12 Q1014 NOSIG EDDR 271620Z 17003KT 140V210 9999 FEW035 BKN100 21/12 Q1014 NOSIG EDDR 271550Z 18004KT 150V210 9999 FEW035 BKN100 21/12 Q1014 NOSIG EDDR 271520Z VRB02KT 9999 FEW035 BKN100 21/13 Q1014 NOSIG EDDR 271450Z 16003KT 080V230 9999 FEW035 BKN110 22/13 Q1014 NOSIG EDDR 271420Z 11003KT 020V180 9999 FEW030 BKN110 21/13 Q1014 NOSIG EDDR 271350Z VRB02KT 9999 FEW023 BKN110 20/13 Q1015 NOSIG EDDR 271320Z VRB02KT 9999 FEW025 BKN110 21/14 Q1015 NOSIG EDDR 271250Z 25004KT 170V330 9999 FEW025 BKN110 20/14 Q1015 NOSIG EDDR 271220Z VRB03KT 9999 FEW023 BKN110 20/13 Q1015 NOSIG EDDR 271150Z 27003KT 210V310 9999 FEW023 BKN110 20/15 Q1015 NOSIG EDDR 271120Z VRB02KT 9999 SCT015 SCT120 BKN270 19/14 Q1015 NOSIG EDDR 271050Z VRB02KT 9999 SCT015 BKN270 19/14 Q1015 NOSIG EDDR 271020Z 10004KT 030V130 9999 SCT012 BKN270 19/15 Q1015 TEMPO BKN012 EDDR 270950Z VRB01KT 9999 SCT008 SCT120 18/14 Q1015 TEMPO BKN012 EDDR 270920Z VRB03KT 8000 BKN007 17/14 Q1015 BECMG SCT007 EDDR 270850Z 09006KT 070V130 7000 BKN005 16/14 Q1015 BECMG SCT005 EDDR 270820Z 07006KT 040V110 5000 BR BKN005 15/13 Q1015 BECMG SCT005 EDDR 270750Z 07005KT 030V110 5000 BR BKN005 14/13 Q1015 BECMG SCT005 EDDR 270720Z 08007KT 5000 BR FEW005 SCT050 BKN110 14/13 Q1015 NOSIG EDDR 270650Z 01005KT 320V070 5000 -RA BR FEW005 SCT050 BKN110 14/13 Q1015 NOSIG EDDR 270620Z 09004KT 5000 -RA BR NSC 14/13 Q1015 RERA NOSIG EDDR 270550Z 09004KT 4500 SHRA FEW040CB SCT050 BKN110 14/12 Q1015 BECMG 6000 NSW EDDR 270520Z VRB02KT 9999 -SHRA FEW040CB SCT050 BKN110 14/12 Q1015 TEMPO 4000 SHRA EDDR 270450Z VRB02KT CAVOK 14/12 Q1014 TEMPO 4000 SHRA SCT040CB EDDR 270420Z 06004KT 340V130 CAVOK 14/12 Q1014 TEMPO SHRA SCT040CB EDDR 270350Z 04003KT 350V120 CAVOK 13/12 Q1014 TEMPO SHRA SCT040CB EDDR 270320Z 01004KT 330V040 CAVOK 13/12 Q1014 EDDR 270250Z 34005KT CAVOK 13/12 Q1014 EDDR 270220Z VRB02KT CAVOK 14/12 Q1014 EDDR 270150Z 06006KT CAVOK 14/12 Q1013 EDDR 270120Z AUTO 09005KT 3700 FEW090/// BKN110/// 14/12 Q1013 EDDR 270050Z AUTO 07005KT 050V110 CAVOK 14/13 Q1013 EDDR 270020Z AUTO 07008KT CAVOK 14/13 Q1013 EDDR 262350Z AUTO 03005KT 360V070 7000 SCT060/// 15/13 Q1014 EDDR 262320Z AUTO 21010G22KT 160V240 4500 BKN055/// 15/12 Q1015 EDDR 262250Z AUTO 05004KT 350V090 CAVOK 17/10 Q1014 EDDR 262220Z AUTO 07008KT CAVOK 17/10 Q1013 EDDR 262150Z AUTO 06008KT CAVOK 17/11 Q1014 EDDR 262120Z AUTO 06007KT CAVOK 17/11 Q1013 EDDR 262050Z 05006KT CAVOK 18/11 Q1014 EDDR 262020Z 03006KT 360V060 CAVOK 18/12 Q1014 NOSIG EDDR 261950Z 05005KT CAVOK 18/12 Q1014 NOSIG EDDR 261920Z 04005KT 360V060 CAVOK 19/12 Q1014 NOSIG EDDR 261850Z 04004KT CAVOK 20/11 Q1013 NOSIG EDDR 261820Z AUTO 04003KT //// R09/P2000N ///////// 21/11 Q1014 NOSIG EDDR 261750Z 07002KT CAVOK 21/12 Q1014 NOSIG EDDR 261720Z VRB02KT CAVOK 22/11 Q1014 NOSIG EDDR 261650Z 12004KT 080V140 CAVOK 22/10 Q1014 NOSIG EDDR 261620Z 09005KT 040V130 CAVOK 23/10 Q1014 NOSIG EDDR 261550Z VRB02KT CAVOK 23/10 Q1014 NOSIG EDDR 261520Z 12006KT 080V150 CAVOK 23/10 Q1014 NOSIG EDDR 261450Z 09004KT 050V150 CAVOK 23/09 Q1014 NOSIG EDDR 261420Z 09005KT 020V120 CAVOK 23/09 Q1014 NOSIG EDDR 261350Z VRB05KT CAVOK 23/10 Q1015 NOSIG EDDR 261320Z 10006KT 040V130 CAVOK 22/10 Q1015 NOSIG EDDR 261250Z VRB02KT CAVOK 22/10 Q1015 NOSIG EDDR 261220Z VRB05KT 9999 FEW044 22/09 Q1015 NOSIG EDDR 261150Z VRB04KT 9999 FEW041 22/11 Q1015 NOSIG EDDR 261120Z 20005KT 130V240 9999 FEW037 21/11 Q1015 NOSIG EDDR 261050Z VRB04KT 9999 FEW035 21/11 Q1015 NOSIG EDDR 261020Z VRB05KT 9999 FEW034 20/10 Q1015 NOSIG EDDR 260950Z 12005KT 040V170 9999 FEW030 19/10 Q1015 NOSIG EDDR 260920Z 07004KT 320V130 9999 FEW030 18/11 Q1015 NOSIG EDDR 260850Z 09006KT 040V140 CAVOK 18/12 Q1016 NOSIG EDDR 260820Z 07006KT 040V120 CAVOK 17/11 Q1016 NOSIG

METAR Messwerte

Zurück zur Übersicht

Ort
m ü. NN
Zeit Temperatur Taupunkt Rel.
Luftfeuchte
Luftdruck:
Altimeter
NN
Station
Wind in Beaufort
(Knoten)
Sichtweite
(Meter)
Wolken
(Meter über Grund)
Wettererscheinung
Saarbrücken/Ensheim
320
Fr 27.05. 21:50181477 %1015
1015
977
Uml 1 (2)>= 10000Wolkig (3400)
Leicht bewölkt (1100)
 
Saarbrücken/Ensheim
320
Fr 27.05. 21:20191368 %1014
1013
976
ONO 1 (2)>= 10000Wolkig (3400)
Leicht bewölkt (1100)
 
Saarbrücken/Ensheim
320
Fr 27.05. 20:50201364 %1014
1013
976
ONO 1 (1)>= 10000Wolkig (3400)
Leicht bewölkt (1100)
 
Saarbrücken/Ensheim
320
Fr 27.05. 20:20211360 %1014
1013
976
Uml 1 (1)>= 10000Stark bewölkt (3000)
Leicht bewölkt (1100)
 
Saarbrücken/Ensheim
320
Fr 27.05. 19:50211360 %1014
1013
976
W 1 (2)>= 10000Stark bewölkt (3000)
Leicht bewölkt (1100)
 
Saarbrücken/Ensheim
320
Fr 27.05. 19:20211360 %1014
1013
976
WSW 2 (3)>= 10000Stark bewölkt (3000)
Leicht bewölkt (1100)
 
Saarbrücken/Ensheim
320
Fr 27.05. 18:50211256 %1014
1013
976
SW 2 (3)
S - W
>= 10000Stark bewölkt (3400)
Leicht bewölkt (1200)
 
Saarbrücken/Ensheim
320
Fr 27.05. 18:20211256 %1014
1013
976
S 2 (3)
SO - SSW
>= 10000Stark bewölkt (3000)
Leicht bewölkt (1100)
 
Saarbrücken/Ensheim
320
Fr 27.05. 17:50211256 %1014
1013
976
S 2 (4)
SSO - SSW
>= 10000Stark bewölkt (3000)
Leicht bewölkt (1100)
 
Saarbrücken/Ensheim
320
Fr 27.05. 17:20211360 %1014
1013
976
Uml 1 (2)>= 10000Stark bewölkt (3000)
Leicht bewölkt (1100)
 
Saarbrücken/Ensheim
320
Fr 27.05. 16:50221357 %1014
1013
976
SSO 2 (3)
O - SW
>= 10000Stark bewölkt (3400)
Leicht bewölkt (1100)
 
Saarbrücken/Ensheim
320
Fr 27.05. 16:20211360 %1014
1013
976
OSO 2 (3)
NNO - S
>= 10000Stark bewölkt (3400)
Leicht bewölkt (910)
 
Saarbrücken/Ensheim
320
Fr 27.05. 15:50201364 %1015
1014
977
Uml 1 (2)>= 10000Stark bewölkt (3400)
Leicht bewölkt (700)
 
Saarbrücken/Ensheim
320
Fr 27.05. 15:20211464 %1015
1014
977
Uml 1 (2)>= 10000Stark bewölkt (3400)
Leicht bewölkt (760)
 
Saarbrücken/Ensheim
320
Fr 27.05. 14:50201468 %1015
1014
977
WSW 2 (4)
S - NNW
>= 10000Stark bewölkt (3400)
Leicht bewölkt (760)
 
Saarbrücken/Ensheim
320
Fr 27.05. 14:20201364 %1015
1014
977
Uml 2 (3)>= 10000Stark bewölkt (3400)
Leicht bewölkt (700)
 
Saarbrücken/Ensheim
320
Fr 27.05. 13:50201573 %1015
1014
977
W 2 (3)
SSW - NW
>= 10000Stark bewölkt (3400)
Leicht bewölkt (700)
 
Saarbrücken/Ensheim
320
Fr 27.05. 13:20191473 %1015
1014
977
Uml 1 (2)>= 10000Stark bewölkt (8200)
Wolkig (3700)
Wolkig (460)
 
Saarbrücken/Ensheim
320
Fr 27.05. 12:50191473 %1015
1014
977
Uml 1 (2)>= 10000Stark bewölkt (8200)
Wolkig (460)
 
Saarbrücken/Ensheim
320
Fr 27.05. 12:20191578 %1015
1014
977
O 2 (4)
NNO - SO
>= 10000Stark bewölkt (8200)
Wolkig (370)
 
Saarbrücken/Ensheim
320
Fr 27.05. 11:50181477 %1015
1015
977
Uml 1 (1)>= 10000Wolkig (3700)
Wolkig (240)
 
Saarbrücken/Ensheim
320
Fr 27.05. 11:20171482 %1015
1015
977
Uml 2 (3)8000Stark bewölkt (210) 
Saarbrücken/Ensheim
320
Fr 27.05. 10:50161488 %1015
1015
977
O 2 (6)
ONO - SO
7000Stark bewölkt (150) 
Saarbrücken/Ensheim
320
Fr 27.05. 10:20151388 %1015
1015
977
ONO 2 (6)
NO - OSO
5000Stark bewölkt (150)Nebeldunst
Saarbrücken/Ensheim
320
Fr 27.05. 09:50141394 %1015
1015
977
ONO 2 (5)
NNO - OSO
5000Stark bewölkt (150)Nebeldunst
Saarbrücken/Ensheim
320
Fr 27.05. 09:20141394 %1015
1015
977
O 3 (7)5000Stark bewölkt (3400)
Wolkig (1500)
Leicht bewölkt (150)
Nebeldunst
Saarbrücken/Ensheim
320
Fr 27.05. 08:50141394 %1015
1015
977
N 2 (5)
NW - ONO
5000Stark bewölkt (3400)
Wolkig (1500)
Leicht bewölkt (150)
Regen (schwach)
Nebeldunst
Saarbrücken/Ensheim
320
Fr 27.05. 08:20141394 %1015
1015
977
O 2 (4)5000Nicht signifikantRegen (schwach)
Nebeldunst
Saarbrücken/Ensheim
320
Fr 27.05. 07:50141288 %1015
1015
977
O 2 (4)4500Stark bewölkt (3400)
Wolkig (1500)
Leicht bewölkt Cb (1200)
Regen-Schauer
Saarbrücken/Ensheim
320
Fr 27.05. 07:20141288 %1015
1015
977
Uml 1 (2)>= 10000Stark bewölkt (3400)
Wolkig (1500)
Leicht bewölkt Cb (1200)
Regen-Schauer (schwach)
Bald möglich: Regen-Schauer
Saarbrücken/Ensheim
320
Fr 27.05. 06:50141288 %1014
1014
976
Uml 1 (2)>= 10000Nicht signifikant Bald möglich: Regen-Schauer
Saarbrücken/Ensheim
320
Fr 27.05. 06:20141288 %1014
1014
976
ONO 2 (4)
NNW - SO
>= 10000Nicht signifikant Bald möglich: Regen-Schauer
Saarbrücken/Ensheim
320
Fr 27.05. 05:50131294 %1014
1014
976
NO 2 (3)
N - OSO
>= 10000Nicht signifikant Bald möglich: Regen-Schauer
Saarbrücken/Ensheim
320
Fr 27.05. 05:20131294 %1014
1014
976
N 2 (4)
NNW - NO
>= 10000Nicht signifikant 
Saarbrücken/Ensheim
320
Fr 27.05. 04:50131294 %1014
1014
976
NNW 2 (5)>= 10000Nicht signifikant 
Saarbrücken/Ensheim
320
Fr 27.05. 04:20141288 %1014
1014
976
Uml 1 (2)>= 10000Nicht signifikant 
Saarbrücken/Ensheim
320
Fr 27.05. 03:50141288 %1013
1013
975
ONO 2 (6)>= 10000Nicht signifikant 
Saarbrücken/Ensheim
320
Fr 27.05. 03:20141288 %1013
1013
975
O 2 (5)3700Stark bewölkt (3400)
Leicht bewölkt (2700)
 
Saarbrücken/Ensheim
320
Fr 27.05. 02:50141394 %1013
1013
975
ONO 2 (5)
NO - OSO
>= 10000Nicht signifikant 
Saarbrücken/Ensheim
320
Fr 27.05. 02:20141394 %1013
1013
975
ONO 3 (8)>= 10000Nicht signifikant 
Saarbrücken/Ensheim
320
Fr 27.05. 01:50151388 %1014
1014
976
NNO 2 (5)
N - ONO
7000Wolkig (1800) 
Saarbrücken/Ensheim
320
Fr 27.05. 01:20151282 %1015
1015
977
SSW 3 (10) - 6 (22)
SSO - WSW
4500Stark bewölkt (1700) 
Saarbrücken/Ensheim
320
Fr 27.05. 00:50171063 %1014
1014
976
NO 2 (4)
N - O
>= 10000Nicht signifikant 
Saarbrücken/Ensheim
320
Fr 27.05. 00:20171063 %1013
1013
975
ONO 3 (8)>= 10000Nicht signifikant 
Saarbrücken/Ensheim
320
Do 26.05. 23:50171168 %1014
1014
976
ONO 3 (8)>= 10000Nicht signifikant 
Saarbrücken/Ensheim
320
Do 26.05. 23:20171168 %1013
1013
975
ONO 3 (7)>= 10000Nicht signifikant 
Saarbrücken/Ensheim
320
Do 26.05. 22:50181164 %1014
1014
976
NO 2 (6)>= 10000Nicht signifikant 
Saarbrücken/Ensheim
320
Do 26.05. 22:20181268 %1014
1014
976
NNO 2 (6)
N - ONO
>= 10000Nicht signifikant 
Saarbrücken/Ensheim
320
Do 26.05. 21:50181268 %1014
1014
976
NO 2 (5)>= 10000Nicht signifikant 
Saarbrücken/Ensheim
320
Do 26.05. 21:20191264 %1014
1013
976
NO 2 (5)
N - ONO
>= 10000Nicht signifikant 
Saarbrücken/Ensheim
320
Do 26.05. 20:50201156 %1013
1012
975
NO 2 (4)>= 10000Nicht signifikant 
Saarbrücken/Ensheim
320
Do 26.05. 20:20211153 %1014
1013
976
NO 2 (3)   
Saarbrücken/Ensheim
320
Do 26.05. 19:50211256 %1014
1013
976
ONO 1 (2)>= 10000Nicht signifikant 
Saarbrücken/Ensheim
320
Do 26.05. 19:20221150 %1014
1013
976
Uml 1 (2)>= 10000Nicht signifikant 
Saarbrücken/Ensheim
320
Do 26.05. 18:50221046 %1014
1013
976
OSO 2 (4)
O - SO
>= 10000Nicht signifikant 
Saarbrücken/Ensheim
320
Do 26.05. 18:20231044 %1014
1013
976
O 2 (5)
NO - SO
>= 10000Nicht signifikant 
Saarbrücken/Ensheim
320
Do 26.05. 17:50231044 %1014
1013
976
Uml 1 (2)>= 10000Nicht signifikant 
Saarbrücken/Ensheim
320
Do 26.05. 17:20231044 %1014
1013
976
OSO 2 (6)
O - SSO
>= 10000Nicht signifikant 
Saarbrücken/Ensheim
320
Do 26.05. 16:5023941 %1014
1013
976
O 2 (4)
NO - SSO
>= 10000Nicht signifikant 
Saarbrücken/Ensheim
320
Do 26.05. 16:2023941 %1014
1013
976
O 2 (5)
NNO - OSO
>= 10000Nicht signifikant 
Saarbrücken/Ensheim
320
Do 26.05. 15:50231044 %1015
1014
977
Uml 2 (5)>= 10000Nicht signifikant 
Saarbrücken/Ensheim
320
Do 26.05. 15:20221046 %1015
1014
977
O 2 (6)
NO - SO
>= 10000Nicht signifikant 
Saarbrücken/Ensheim
320
Do 26.05. 14:50221046 %1015
1014
977
Uml 1 (2)>= 10000Nicht signifikant 
Saarbrücken/Ensheim
320
Do 26.05. 14:2022943 %1015
1014
977
Uml 2 (5)>= 10000Leicht bewölkt (1300) 
Saarbrücken/Ensheim
320
Do 26.05. 13:50221150 %1015
1014
977
Uml 2 (4)>= 10000Leicht bewölkt (1200) 
Saarbrücken/Ensheim
320
Do 26.05. 13:20211153 %1015
1014
977
SSW 2 (5)
SO - WSW
>= 10000Leicht bewölkt (1100) 
Saarbrücken/Ensheim
320
Do 26.05. 12:50211153 %1015
1014
977
Uml 2 (4)>= 10000Leicht bewölkt (1100) 
Saarbrücken/Ensheim
320
Do 26.05. 12:20201053 %1015
1014
977
Uml 2 (5)>= 10000Leicht bewölkt (1000) 
Saarbrücken/Ensheim
320
Do 26.05. 11:50191056 %1015
1014
977
OSO 2 (5)
NO - S
>= 10000Leicht bewölkt (910) 
Saarbrücken/Ensheim
320
Do 26.05. 11:20181164 %1015
1015
977
ONO 2 (4)
NW - SO
>= 10000Leicht bewölkt (910) 
Saarbrücken/Ensheim
320
Do 26.05. 10:50181268 %1016
1016
978
O 2 (6)
NO - SO
>= 10000Nicht signifikant 
Saarbrücken/Ensheim
320
Do 26.05. 10:20171168 %1016
1016
978
ONO 2 (6)
NO - OSO
>= 10000Nicht signifikant 

Altimeter: Einstellung am Altimeter (Höhenmesser), die Höhe 0 muss auf diesen Luftdruckwert zeigen, damit das Gerät die Stationshöhe richtig anzeigt.

NN: Luftdruck reduziert auf "Normal Null", auf Meereshöhe, dieser von der Temperatur abhängige Wert wird bisweilen unkorrekt einfach als "Luftdruck" bezeichnet. Eigentlich nur eine fiktive Größe, die es erlaubt, Stationen auf unterschiedlichen Höhen miteinander zu vergleichen.

Station: Realer Luftdruck an der Station.